National Weather Service Raw Text Product

Displaying AFOS PIL: TAFMCW Received: 2017-08-13 15:54 UTC


935 
FTUS43 KDMX 131554 AAA
TAFMCW
TAF AMD
KMCW 131554Z 1316/1412 14007KT P6SM VCSH BKN060 BKN080
     FM131900 17009KT P6SM BKN080
     FM140200 13006KT P6SM VCTS BKN100CB
     FM140600 15007KT P6SM BKN100=